Time;durP1;ratioP1;P1;durP2;ratioP2;P2;SDS_P1;SDS_P2;PMS_P1;PMS_P2;Temp;Humidity;BMP_temperature;BMP_pressure;BME280_temperature;BME280_humidity;BME280_pressure;Samples;Min_cycle;Max_cycle;Signal;HPM_P1;HPM_P2
2023/03/14 00:02:23;;;;;;;1.00;0.80;;;9.20;99.90;;;9.19;89.88;96187.25;5085264;28;20456;-72
2023/03/14 00:04:50;;;;;;;3.40;0.63;;;9.30;99.90;;;9.28;89.21;96201.09;5092492;28;20526;-72
2023/03/14 00:07:17;;;;;;;0.77;0.60;;;9.30;99.90;;;9.16;89.07;96203.91;5131752;27;20522;-73
2023/03/14 00:09:46;;;;;;;1.07;0.50;;;9.30;99.90;;;9.27;89.87;96209.44;5091668;28;20449;-72
2023/03/14 00:12:14;;;;;;;1.10;0.53;;;9.30;99.90;;;9.28;89.29;96206.47;5105395;27;20458;-72
2023/03/14 00:14:42;;;;;;;1.00;0.63;;;9.30;99.90;;;9.27;89.51;96204.84;5077668;28;20460;-72
2023/03/14 00:17:09;;;;;;;1.67;0.93;;;9.20;99.90;;;9.22;89.64;96194.03;5109042;27;20549;-73
2023/03/14 00:19:37;;;;;;;1.57;0.80;;;9.30;99.90;;;9.30;89.68;96198.16;5106709;28;20567;-73
2023/03/14 00:22:04;;;;;;;1.07;0.57;;;9.30;99.90;;;9.20;89.34;96185.38;5100532;28;20452;-72
2023/03/14 00:24:32;;;;;;;1.50;0.70;;;9.30;99.90;;;9.14;89.76;96200.66;5090823;28;20981;-72
2023/03/14 00:27:00;;;;;;;2.17;0.90;;;9.30;99.90;;;9.22;89.16;96212.88;5114625;27;20919;-71
2023/03/14 00:29:27;;;;;;;1.93;0.87;;;9.20;99.90;;;9.26;89.58;96214.00;5107670;27;20453;-73
2023/03/14 00:31:55;;;;;;;2.73;0.90;;;9.30;99.90;;;9.00;89.06;96185.94;5101217;28;20466;-72
2023/03/14 00:34:22;;;;;;;0.80;0.73;;;9.20;99.90;;;9.20;88.63;96226.59;5086230;28;20455;-73
2023/03/14 00:36:50;;;;;;;0.87;0.70;;;9.20;99.90;;;9.06;88.40;96206.47;5092540;28;20453;-73
2023/03/14 00:39:17;;;;;;;3.50;0.70;;;9.20;99.90;;;9.21;88.48;96248.97;5118024;27;20477;-73
2023/03/14 00:41:44;;;;;;;1.40;0.50;;;9.20;99.90;;;9.06;88.48;96236.94;5087696;28;20547;-73
2023/03/14 00:44:13;;;;;;;0.60;0.60;;;9.20;99.90;;;9.19;87.81;96243.03;5105170;27;20444;-72
2023/03/14 00:46:40;;;;;;;1.40;0.80;;;9.20;99.90;;;9.22;87.61;96239.84;5079664;28;20463;-72
2023/03/14 00:49:08;;;;;;;1.77;0.50;;;9.30;99.90;;;9.17;87.35;96242.44;5081743;28;20458;-71
2023/03/14 00:51:35;;;;;;;0.80;0.50;;;9.30;99.90;;;9.16;87.52;96256.97;5086837;28;20562;-73
2023/03/14 00:54:03;;;;;;;0.50;0.40;;;9.30;99.90;;;9.10;87.23;96247.22;5097824;28;20463;-73
2023/03/14 00:56:31;;;;;;;0.80;0.40;;;9.30;99.90;;;9.22;87.19;96266.78;5092421;28;20464;-72
2023/03/14 00:58:58;;;;;;;0.70;0.50;;;9.30;99.90;;;9.11;86.81;96256.91;5102909;27;20491;-72
2023/03/14 01:01:27;;;;;;;0.90;0.50;;;9.30;99.90;;;9.00;86.83;96256.78;5083344;28;20795;-71
2023/03/14 01:03:57;;;;;;;1.63;0.40;;;9.30;99.90;;;9.18;86.91;96261.06;5094593;27;20544;-72
2023/03/14 01:06:27;;;;;;;0.50;0.40;;;9.30;99.90;;;9.09;86.02;96256.34;5089051;27;20805;-72
2023/03/14 01:08:56;;;;;;;0.60;0.60;;;9.30;99.90;;;9.05;86.15;96226.41;5086042;28;20780;-71
2023/03/14 01:11:25;;;;;;;1.43;0.60;;;9.30;99.90;;;9.25;85.93;96239.31;5083731;28;20500;-72
2023/03/14 01:13:53;;;;;;;1.43;0.30;;;9.30;99.90;;;9.21;86.42;96224.72;5086218;28;20543;-71
2023/03/14 01:16:23;;;;;;;0.47;0.33;;;9.30;99.90;;;9.18;85.36;96196.41;5087072;28;20451;-72
2023/03/14 01:18:52;;;;;;;0.57;0.30;;;9.30;99.60;;;9.27;85.56;96207.53;5084219;28;20501;-71
2023/03/14 01:21:22;;;;;;;0.40;0.30;;;9.30;99.30;;;8.93;85.37;96151.09;5085631;28;20445;-74
2023/03/14 01:23:51;;;;;;;0.50;0.50;;;9.30;99.90;;;9.16;85.65;96198.53;5088459;28;20539;-71
2023/03/14 01:26:21;;;;;;;0.50;0.30;;;9.30;99.90;;;9.27;85.61;96204.84;5101214;27;20523;-72
2023/03/14 01:28:51;;;;;;;0.40;0.33;;;9.30;99.90;;;9.35;85.39;96228.69;5072721;28;20451;-73
2023/03/14 01:31:19;;;;;;;0.77;0.47;;;9.30;99.90;;;9.32;85.86;96194.13;5077131;28;20452;-72
2023/03/14 01:33:47;;;;;;;0.40;0.30;;;9.30;99.90;;;9.58;83.91;96183.63;5083513;28;20447;-71
2023/03/14 01:36:16;;;;;;;1.07;0.40;;;9.40;99.90;;;9.49;84.40;96174.38;5101530;28;20464;-71
2023/03/14 01:38:43;;;;;;;0.50;0.50;;;9.30;99.90;;;9.59;84.26;96198.72;5091023;28;20469;-71
2023/03/14 01:41:17;;;;;;;0.73;0.50;;;9.30;99.90;;;9.49;84.20;96202.13;5097554;28;20554;-71
2023/03/14 01:43:44;;;;;;;0.40;0.30;;;9.30;99.90;;;9.37;84.91;96187.19;5087934;28;20448;-71
2023/03/14 01:46:21;;;;;;;0.40;0.20;;;9.30;99.90;;;9.33;85.36;96195.78;5124030;27;20794;-72
2023/03/14 01:48:56;;;;;;;0.50;0.30;;;9.30;99.90;;;9.38;85.62;96195.00;5113442;27;20455;-71
2023/03/14 01:51:31;;;;;;;0.50;0.30;;;9.30;99.90;;;9.47;85.86;96208.84;5119582;27;20449;-70
2023/03/14 01:54:07;;;;;;;0.60;0.30;;;9.30;99.90;;;9.49;84.46;96209.44;5093552;28;20805;-70
2023/03/14 01:56:36;;;;;;;0.60;0.40;;;9.30;99.90;;;9.44;85.89;96209.34;5110612;27;20444;-71
2023/03/14 01:59:08;;;;;;;1.13;0.40;;;9.30;99.90;;;9.47;85.14;96216.91;5094935;28;20541;-71
2023/03/14 02:01:36;;;;;;;0.60;0.30;;;9.40;99.90;;;9.57;85.71;96225.13;5087415;28;20474;-71
2023/03/14 02:04:07;;;;;;;0.90;0.50;;;9.40;99.90;;;9.53;84.83;96224.03;5081982;28;22455;-72
2023/03/14 02:06:51;;;;;;;0.40;0.30;;;9.40;99.90;;;9.47;84.93;96230.41;5096790;28;20721;-73
2023/03/14 02:09:19;;;;;;;0.40;0.30;;;9.40;99.90;;;9.41;85.83;96236.81;5097940;28;20452;-73
2023/03/14 02:11:47;;;;;;;0.70;0.30;;;9.50;99.90;;;9.54;85.39;96236.44;5090354;28;20778;-73
2023/03/14 02:14:27;;;;;;;0.60;0.30;;;9.50;99.90;;;9.56;85.18;96231.59;5077286;28;20952;-73
2023/03/14 02:16:55;;;;;;;0.73;0.40;;;9.50;99.90;;;9.57;84.83;96214.34;5091503;27;20444;-73
2023/03/14 02:19:37;;;;;;;0.50;0.40;;;9.50;99.90;;;9.48;84.99;96210.50;5074417;28;21034;-73
2023/03/14 02:22:11;;;;;;;0.70;0.40;;;9.50;99.90;;;9.40;84.55;96186.66;5084784;28;20517;-74
2023/03/14 02:24:45;;;;;;;0.60;0.40;;;9.50;99.90;;;9.52;84.80;96189.22;5086231;28;20479;-72
2023/03/14 02:27:16;;;;;;;0.67;0.53;;;9.40;99.90;;;9.41;85.71;96182.91;5103794;27;20551;-73
2023/03/14 02:29:51;;;;;;;0.60;0.47;;;9.40;99.90;;;9.47;85.37;96173.78;5085690;28;20457;-73
2023/03/14 02:32:22;;;;;;;0.60;0.30;;;9.40;99.90;;;9.60;84.90;96186.06;5085747;28;20445;-74
2023/03/14 02:34:54;;;;;;;1.77;0.30;;;9.50;99.90;;;9.44;84.56;96194.00;5083186;28;20456;-73
2023/03/14 02:37:27;;;;;;;0.83;0.40;;;9.50;99.90;;;9.53;85.35;96180.88;5079470;28;20479;-74
2023/03/14 02:39:55;;;;;;;1.17;0.40;;;9.50;99.90;;;9.30;85.72;96165.81;5087866;28;20544;-73
2023/03/14 02:42:23;;;;;;;0.50;0.37;;;9.40;99.90;;;9.47;85.67;96171.94;5095997;28;20455;-73
2023/03/14 02:44:55;;;;;;;0.40;0.30;;;9.40;99.90;;;9.44;84.50;96160.84;5087559;28;20452;-72
2023/03/14 02:47:28;;;;;;;0.40;0.30;;;9.50;99.90;;;9.64;84.38;96161.06;5102659;28;20825;-73
2023/03/14 02:50:03;;;;;;;0.70;0.60;;;9.50;99.90;;;9.28;84.72;96149.88;5093141;28;21069;-73
2023/03/14 02:52:30;;;;;;;0.67;0.50;;;9.50;99.90;;;9.68;83.28;96155.16;5109976;27;20445;-72
2023/03/14 02:54:58;;;;;;;0.83;0.30;;;9.50;99.90;;;9.66;83.83;96151.91;5095062;28;20453;-72
2023/03/14 02:57:27;;;;;;;1.07;0.50;;;9.50;99.90;;;9.58;84.27;96151.28;5109308;28;20473;-73
2023/03/14 02:59:54;;;;;;;0.60;0.50;;;9.40;99.90;;;9.57;83.98;96146.16;5098972;28;20519;-73
2023/03/14 03:02:21;;;;;;;0.60;0.47;;;9.40;99.90;;;9.52;84.97;96144.22;5095688;28;20452;-72
2023/03/14 03:04:48;;;;;;;1.07;0.60;;;9.30;99.90;;;9.48;84.31;96135.81;5093131;28;20460;-72
2023/03/14 03:07:16;;;;;;;0.70;0.70;;;9.30;99.90;;;9.48;84.24;96132.31;5094845;28;20444;-73
2023/03/14 03:09:43;;;;;;;0.93;0.60;;;9.30;99.90;;;9.49;83.95;96137.44;5090706;28;20451;-72
2023/03/14 03:12:11;;;;;;;2.20;0.67;;;9.40;99.90;;;9.45;84.94;96149.81;5102065;28;20523;-72
2023/03/14 03:14:40;;;;;;;1.03;0.50;;;9.30;99.70;;;8.99;84.52;96090.84;5081508;28;20454;-74
2023/03/14 03:17:07;;;;;;;1.77;0.40;;;9.30;99.90;;;9.15;85.26;96136.81;5061668;28;20464;-73
2023/03/14 03:19:35;;;;;;;0.60;0.30;;;9.20;99.90;;;9.24;85.41;96139.84;5075962;28;20503;-73
2023/03/14 03:22:02;;;;;;;0.87;0.40;;;9.20;99.90;;;9.30;85.09;96144.25;5084949;28;20807;-73
2023/03/14 03:24:30;;;;;;;0.50;0.40;;;9.20;99.90;;;9.31;84.95;96135.09;5098224;28;20459;-73
2023/03/14 03:26:57;;;;;;;2.53;0.37;;;9.20;99.90;;;9.13;84.90;96128.16;5082036;28;20455;-73
2023/03/14 03:29:24;;;;;;;0.73;0.33;;;9.10;99.90;;;9.09;85.50;96118.97;5082289;28;20444;-73
2023/03/14 03:31:53;;;;;;;1.80;0.50;;;9.10;99.90;;;9.17;84.90;96123.88;5076112;28;21079;-73
2023/03/14 03:34:21;;;;;;;0.60;0.40;;;9.10;99.90;;;9.24;84.81;96127.22;5099599;27;20836;-73
2023/03/14 03:36:48;;;;;;;0.60;0.50;;;9.10;99.90;;;9.13;85.30;96112.00;5096517;27;20449;-74
2023/03/14 03:39:16;;;;;;;0.43;0.33;;;9.10;99.90;;;9.22;84.87;96126.66;5082534;28;20482;-73
2023/03/14 03:41:43;;;;;;;0.50;0.37;;;9.00;99.90;;;9.01;84.85;96115.63;5119983;27;20967;-73
2023/03/14 03:44:12;;;;;;;1.60;0.50;;;9.00;99.90;;;9.07;84.91;96130.81;5096289;28;20461;-71
2023/03/14 03:46:39;;;;;;;0.40;0.40;;;9.00;99.90;;;9.04;85.36;96125.09;5109665;27;20937;-73
2023/03/14 03:49:09;;;;;;;2.83;0.43;;;9.00;99.90;;;9.10;84.56;96128.66;5102298;28;20447;-73
2023/03/14 03:51:37;;;;;;;0.90;0.50;;;9.00;99.90;;;9.13;84.38;96128.16;5081981;28;21235;-73
2023/03/14 03:54:04;;;;;;;1.50;1.40;;;9.00;99.90;;;9.02;84.54;96108.38;5090510;28;20977;-73
2023/03/14 03:56:32;;;;;;;1.50;0.30;;;9.00;99.90;;;9.09;84.37;96129.75;5096289;28;20465;-73
2023/03/14 03:58:59;;;;;;;0.70;0.53;;;8.90;99.90;;;8.99;83.94;96111.59;5114589;27;20466;-74
2023/03/14 04:01:26;;;;;;;0.40;0.30;;;9.00;99.40;;;8.99;83.73;96104.31;5089197;28;20452;-73
2023/03/14 04:03:53;;;;;;;0.50;0.40;;;9.00;99.40;;;9.02;83.84;96109.22;5094208;28;20923;-72
2023/03/14 04:06:23;;;;;;;0.50;0.40;;;8.90;99.10;;;9.01;83.64;96104.06;5092855;28;20465;-73
2023/03/14 04:08:50;;;;;;;1.13;0.50;;;8.90;98.90;;;9.00;83.31;96097.06;5082868;28;20677;-74
2023/03/14 04:11:18;;;;;;;1.07;0.47;;;8.90;98.60;;;8.88;83.42;96091.81;5107151;27;20445;-73
2023/03/14 04:13:45;;;;;;;1.30;0.57;;;8.90;98.50;;;8.89;84.32;96079.97;5088332;28;20508;-73
2023/03/14 04:16:18;;;;;;;1.33;1.20;;;8.90;99.00;;;8.93;83.59;96081.09;5112472;27;20469;-74
2023/03/14 04:18:45;;;;;;;1.07;0.43;;;8.90;98.30;;;8.88;83.43;96068.38;5092265;28;20463;-73
2023/03/14 04:21:12;;;;;;;0.60;0.60;;;8.90;98.00;;;8.97;83.02;96065.25;5109394;27;20455;-73
2023/03/14 04:23:41;;;;;;;0.90;0.40;;;8.90;97.90;;;8.96;83.54;96077.88;5095913;28;20656;-73
2023/03/14 04:26:08;;;;;;;0.77;0.50;;;8.90;98.60;;;8.77;84.31;96067.44;5095594;28;20465;-72
2023/03/14 04:28:36;;;;;;;2.83;0.60;;;8.80;98.70;;;8.89;84.15;96063.81;5083364;28;20466;-73
2023/03/14 04:31:08;;;;;;;1.10;0.43;;;8.80;98.90;;;8.85;83.71;96062.66;5090344;28;20588;-72
2023/03/14 04:33:37;;;;;;;2.20;0.50;;;8.70;99.20;;;8.67;83.85;96028.81;5078277;28;20848;-74
2023/03/14 04:36:05;;;;;;;0.63;0.60;;;8.70;99.60;;;8.91;83.49;96070.56;5086647;28;20635;-75
2023/03/14 04:38:33;;;;;;;0.70;0.53;;;8.80;98.70;;;8.95;83.44;96067.34;5101319;28;20867;-74
2023/03/14 04:41:02;;;;;;;0.50;0.40;;;8.70;99.10;;;8.85;83.41;96070.75;5085949;28;20485;-74
2023/03/14 04:43:29;;;;;;;1.00;0.53;;;8.70;98.60;;;8.79;83.53;96072.56;5112597;27;20497;-73
2023/03/14 04:45:58;;;;;;;0.50;0.50;;;8.70;99.20;;;8.81;83.55;96085.78;5084008;28;20453;-72
2023/03/14 04:48:27;;;;;;;0.70;0.50;;;8.70;99.70;;;8.78;84.14;96079.00;5105664;27;20456;-73
2023/03/14 04:50:54;;;;;;;0.47;0.47;;;8.70;99.60;;;8.76;83.70;96081.97;5095137;28;20458;-73
2023/03/14 04:53:22;;;;;;;0.90;0.47;;;8.70;99.10;;;8.66;83.98;96056.81;5088681;28;20453;-73
2023/03/14 04:55:50;;;;;;;0.70;0.40;;;8.70;99.40;;;8.70;84.11;96069.50;5091412;27;20468;-73
2023/03/14 04:58:19;;;;;;;1.10;0.47;;;8.70;98.90;;;8.69;83.74;96073.25;5085903;28;20448;-74
2023/03/14 05:00:47;;;;;;;1.17;0.67;;;8.70;98.90;;;8.77;83.50;96088.16;5111577;27;20480;-74
2023/03/14 05:03:16;;;;;;;0.93;0.70;;;8.70;99.00;;;8.73;83.69;96084.34;5087665;28;20481;-72
2023/03/14 05:05:44;;;;;;;2.03;0.60;;;8.70;98.60;;;8.73;83.80;96079.78;5078866;28;20458;-72
2023/03/14 05:08:12;;;;;;;0.90;0.67;;;8.60;99.30;;;8.56;83.58;96062.88;5083898;28;20450;-72
2023/03/14 05:10:39;;;;;;;1.93;1.40;;;8.60;99.40;;;8.70;83.77;96093.72;5096317;28;20457;-73
2023/03/14 05:13:07;;;;;;;0.70;0.60;;;8.60;99.40;;;8.62;84.35;96086.09;5078038;28;20461;-74
2023/03/14 05:15:35;;;;;;;0.60;0.50;;;8.60;99.60;;;8.65;84.16;96085.59;5083343;28;20457;-72
2023/03/14 05:18:02;;;;;;;0.67;0.43;;;8.60;99.60;;;8.55;84.76;96080.06;5083171;28;20491;-73
2023/03/14 05:20:31;;;;;;;0.57;0.43;;;8.50;99.20;;;8.55;84.28;96080.06;5084129;28;20485;-75
2023/03/14 05:22:58;;;;;;;0.70;0.63;;;8.50;99.90;;;8.55;84.35;96069.31;5077194;28;20549;-73
2023/03/14 05:25:25;;;;;;;1.43;0.40;;;8.50;99.90;;;8.46;84.78;96042.81;5113291;27;20454;-73
2023/03/14 05:27:57;;;;;;;0.97;0.63;;;8.50;99.90;;;8.62;84.90;96059.19;5113711;27;20493;-73
2023/03/14 05:30:25;;;;;;;0.77;0.60;;;8.50;99.90;;;8.49;84.42;96055.78;5088696;28;20456;-73
2023/03/14 05:32:55;;;;;;;0.63;0.50;;;8.40;99.90;;;8.56;85.01;96047.53;5092703;28;20557;-72
2023/03/14 05:35:22;;;;;;;0.60;0.50;;;8.50;99.90;;;8.23;84.57;96012.38;5081489;28;20476;-72
2023/03/14 05:37:49;;;;;;;0.97;0.80;;;8.50;99.90;;;8.48;84.34;96031.78;5087490;28;20976;-73
2023/03/14 05:40:17;;;;;;;0.73;0.50;;;8.40;99.90;;;8.51;84.82;96036.72;5087772;28;20821;-72
2023/03/14 05:42:44;;;;;;;0.63;0.63;;;8.40;99.90;;;7.98;84.28;95960.97;5083507;28;20447;-76
2023/03/14 05:45:12;;;;;;;1.70;0.70;;;8.40;99.90;;;8.42;85.04;96030.94;5094255;28;20453;-74
2023/03/14 05:47:39;;;;;;;1.50;1.40;;;8.40;99.90;;;8.53;85.06;96034.59;5087029;28;20504;-74
2023/03/14 05:50:10;;;;;;;0.97;0.67;;;8.40;99.90;;;8.55;84.68;96027.06;5081616;28;20481;-75
2023/03/14 05:52:37;;;;;;;0.67;0.67;;;8.40;99.90;;;8.08;84.92;95966.47;5086132;28;20461;-71
2023/03/14 05:55:06;;;;;;;1.60;0.80;;;8.50;99.90;;;8.59;84.51;96027.41;5139203;27;20450;-74
2023/03/14 05:57:33;;;;;;;1.50;1.10;;;8.50;99.60;;;8.58;83.96;96033.84;5108477;27;20593;-74
2023/03/14 06:00:00;;;;;;;1.40;1.10;;;8.50;99.70;;;8.60;83.99;96026.31;5080446;28;20504;-73
2023/03/14 06:02:31;;;;;;;1.10;1.00;;;8.50;99.80;;;8.69;83.04;96030.19;5101722;28;20449;-74
2023/03/14 06:04:58;;;;;;;2.23;1.30;;;8.60;99.10;;;8.67;83.07;96026.13;5101190;27;20478;-72
2023/03/14 06:07:26;;;;;;;1.00;1.00;;;8.60;99.20;;;8.61;83.66;96030.66;5088699;28;20466;-74
2023/03/14 06:09:54;;;;;;;1.60;0.97;;;8.50;99.10;;;8.63;83.97;96029.31;5101232;27;20530;-73
2023/03/14 06:12:21;;;;;;;1.17;0.73;;;8.50;99.40;;;8.57;83.70;96019.56;5066550;28;20444;-71
2023/03/14 06:14:48;;;;;;;0.70;0.70;;;8.50;99.30;;;8.60;83.66;96029.03;5129839;27;21023;-75
2023/03/14 06:17:15;;;;;;;1.10;0.83;;;8.60;99.20;;;8.67;83.76;96035.00;5105977;27;20469;-72
2023/03/14 06:19:44;;;;;;;5.00;1.37;;;8.60;99.40;;;8.70;84.16;96039.88;5075995;28;20482;-70
2023/03/14 06:22:11;;;;;;;1.20;1.00;;;8.60;98.80;;;8.85;82.95;96031.19;5084466;28;20461;-72
2023/03/14 06:24:40;;;;;;;1.03;0.77;;;8.70;98.90;;;8.72;82.86;96016.25;5085805;28;20453;-71
2023/03/14 06:27:07;;;;;;;1.10;0.87;;;8.70;98.00;;;8.81;83.53;96029.22;5090561;28;20462;-70
2023/03/14 06:29:34;;;;;;;1.20;0.90;;;8.70;97.70;;;8.97;83.10;96027.53;5090060;28;21245;-71
2023/03/14 06:32:02;;;;;;;1.27;0.93;;;8.80;97.60;;;9.10;81.54;96020.91;5082696;28;20450;-80
2023/03/14 06:34:29;;;;;;;0.80;0.80;;;8.90;97.10;;;8.99;82.39;96028.88;5096100;28;20909;-73
2023/03/14 06:36:57;;;;;;;1.10;0.80;;;8.90;96.20;;;9.00;82.12;96021.63;5076561;28;20492;-68
2023/03/14 06:39:24;;;;;;;2.13;1.10;;;8.90;96.70;;;9.21;81.37;96019.94;5084606;28;20529;-70
2023/03/14 06:41:52;;;;;;;1.10;0.90;;;9.00;96.30;;;9.11;81.48;96011.75;5104881;28;20485;-71
2023/03/14 06:44:20;;;;;;;1.50;1.00;;;9.10;95.80;;;9.17;81.30;96021.50;5094232;28;20566;-68
2023/03/14 06:46:47;;;;;;;2.90;1.03;;;9.10;95.10;;;9.20;80.83;96026.41;5109156;28;20464;-70
2023/03/14 06:49:14;;;;;;;1.20;1.07;;;9.10;95.00;;;9.03;81.48;96016.56;5114103;28;20497;-71
2023/03/14 06:51:41;;;;;;;1.73;1.20;;;9.10;94.80;;;9.24;80.93;96022.13;5116255;27;21239;-70
2023/03/14 06:54:08;;;;;;;3.00;1.10;;;9.20;95.10;;;9.40;80.06;96027.66;5090483;28;20465;-71
2023/03/14 06:56:36;;;;;;;1.10;1.00;;;9.30;94.40;;;9.50;79.92;96035.81;5090241;28;20510;-69
2023/03/14 06:59:04;;;;;;;5.03;1.10;;;9.40;94.10;;;9.49;79.64;96051.19;5093812;28;20538;-73
2023/03/14 07:01:34;;;;;;;1.50;1.30;;;9.40;94.00;;;9.50;80.14;96049.31;5118055;27;20491;-71
2023/03/14 07:04:02;;;;;;;1.40;1.30;;;9.50;93.90;;;9.55;79.36;96052.03;5077172;28;20464;-69
2023/03/14 07:06:29;;;;;;;1.50;1.20;;;9.50;93.60;;;9.67;78.92;96053.75;5116260;27;20466;-69
2023/03/14 07:08:57;;;;;;;1.93;1.07;;;9.60;93.60;;;9.70;78.83;96050.53;5086005;28;20494;-72
2023/03/14 07:11:25;;;;;;;2.10;1.13;;;9.60;93.10;;;9.60;79.22;96046.66;5083820;28;20469;-71
2023/03/14 07:13:52;;;;;;;2.20;1.37;;;9.60;93.00;;;9.75;78.25;96043.28;5091152;28;20473;-72
2023/03/14 07:16:20;;;;;;;1.37;1.17;;;9.70;92.90;;;9.89;78.84;96049.03;5116250;27;20826;-73
2023/03/14 07:18:49;;;;;;;1.40;0.80;;;9.70;92.80;;;9.85;78.11;96047.94;5089219;28;20445;-71
2023/03/14 07:21:17;;;;;;;1.40;1.30;;;9.80;92.30;;;9.84;78.43;96038.22;5087946;28;20971;-71
2023/03/14 07:23:44;;;;;;;2.57;1.30;;;9.80;92.40;;;9.89;77.60;96054.44;5120073;27;20466;-73
2023/03/14 07:26:12;;;;;;;1.30;1.17;;;9.80;92.40;;;9.92;78.26;96047.72;5102550;27;20807;-71
2023/03/14 07:28:39;;;;;;;1.97;1.40;;;9.80;92.20;;;9.94;77.75;96052.88;5091222;28;20453;-72
2023/03/14 07:31:07;;;;;;;3.93;1.50;;;9.80;92.20;;;10.06;77.26;96042.69;5079313;28;20466;-72
2023/03/14 07:33:36;;;;;;;3.57;1.80;;;10.00;91.30;;;9.96;77.09;96042.63;5081933;28;20555;-71
2023/03/14 07:36:05;;;;;;;1.80;1.30;;;10.00;91.10;;;10.19;76.64;96042.22;5070398;28;20768;-69
2023/03/14 07:38:32;;;;;;;1.70;1.40;;;10.10;91.00;;;10.22;76.71;96046.28;5074904;28;20457;-71
2023/03/14 07:41:01;;;;;;;1.90;1.30;;;10.10;90.80;;;10.08;76.81;96045.91;5073936;28;20856;-70
2023/03/14 07:43:28;;;;;;;4.03;1.30;;;10.10;90.60;;;10.16;76.34;96042.75;5084503;28;20896;-70
2023/03/14 07:45:55;;;;;;;2.30;1.43;;;10.20;90.60;;;10.03;76.57;96038.63;5083755;28;20568;-70
2023/03/14 07:48:24;;;;;;;1.43;1.33;;;10.20;90.30;;;10.01;76.71;96046.19;5092001;28;20459;-71
2023/03/14 07:50:54;;;;;;;1.40;1.30;;;10.10;90.30;;;10.08;76.35;96045.91;5080163;28;20466;-71
2023/03/14 07:53:23;;;;;;;2.40;1.67;;;10.10;90.10;;;10.11;75.94;96037.34;5078767;28;20465;-70
2023/03/14 07:55:52;;;;;;;3.00;1.23;;;10.20;89.30;;;10.58;74.81;96049.19;5086590;28;20472;-70
2023/03/14 07:58:19;;;;;;;1.27;1.07;;;10.40;89.60;;;10.66;74.09;96038.97;5108849;27;20511;-70
2023/03/14 08:00:46;;;;;;;4.70;1.53;;;10.60;88.60;;;10.33;74.39;96050.69;5092922;28;20479;-72
2023/03/14 08:03:13;;;;;;;1.50;1.27;;;10.50;88.00;;;10.39;74.06;96053.38;5080381;28;20451;-72
2023/03/14 08:05:42;;;;;;;0.83;0.83;;;10.50;87.80;;;10.32;74.32;96059.84;5085954;28;20479;-72
2023/03/14 08:08:10;;;;;;;1.43;1.33;;;10.40;88.10;;;10.34;75.42;96054.16;5079111;28;20443;-70
2023/03/14 08:10:37;;;;;;;3.13;1.30;;;10.40;88.70;;;10.52;72.94;96008.91;5091349;28;20825;-72
2023/03/14 08:13:05;;;;;;;1.23;1.13;;;10.60;88.00;;;10.70;73.38;96057.09;5089556;28;20561;-72
2023/03/14 08:15:32;;;;;;;1.77;1.40;;;10.70;87.00;;;10.76;73.08;96050.63;5080206;28;20456;-69
2023/03/14 08:17:59;;;;;;;1.47;1.33;;;10.80;86.90;;;10.86;72.96;96062.53;5085297;28;20931;-72
2023/03/14 08:20:29;;;;;;;1.90;1.40;;;10.90;86.80;;;10.68;73.52;96053.81;5103238;27;20470;-73
2023/03/14 08:22:58;;;;;;;1.33;1.23;;;10.70;86.70;;;10.98;72.33;96038.78;5086103;28;20472;-71
2023/03/14 08:25:28;;;;;;;1.67;1.43;;;10.90;86.50;;;11.24;71.56;96028.03;5080340;28;20518;-72
2023/03/14 08:27:55;;;;;;;1.47;0.90;;;11.20;86.10;;;11.43;70.72;96022.09;5079083;28;21019;-72
2023/03/14 08:30:23;;;;;;;1.90;1.10;;;11.30;85.50;;;11.33;70.38;96021.00;5080344;28;20449;-75
2023/03/14 08:32:51;;;;;;;4.07;1.70;;;11.30;84.80;;;11.49;70.30;96037.25;5080185;28;20460;-73
2023/03/14 08:35:19;;;;;;;1.90;1.23;;;11.40;84.70;;;11.63;68.81;96029.41;5077614;28;21250;-73
2023/03/14 08:37:46;;;;;;;1.83;1.20;;;11.60;83.80;;;11.56;69.22;96026.16;5087395;28;20461;-75
2023/03/14 08:40:15;;;;;;;4.53;1.00;;;11.60;83.60;;;11.58;68.52;96018.59;5091949;28;20461;-75
2023/03/14 08:42:44;;;;;;;2.07;1.10;;;11.70;83.20;;;11.69;67.57;96014.81;5083543;28;20451;-74
2023/03/14 08:45:14;;;;;;;1.20;1.00;;;11.80;82.40;;;11.59;67.97;96012.88;5081840;28;20755;-72
2023/03/14 08:47:45;;;;;;;1.43;1.00;;;11.80;82.00;;;11.69;67.52;96016.69;5074109;28;20954;-75
2023/03/14 08:50:13;;;;;;;1.30;0.80;;;11.80;81.90;;;11.97;66.34;96014.50;5108544;27;20523;-73
2023/03/14 08:52:42;;;;;;;1.20;0.80;;;11.80;81.60;;;12.21;64.94;96016.63;5128217;27;20458;-72
2023/03/14 08:55:10;;;;;;;1.10;0.90;;;12.10;80.90;;;12.24;64.70;96011.47;5090168;28;20458;-74
2023/03/14 08:57:37;;;;;;;1.13;0.63;;;12.20;80.30;;;11.96;65.18;96021.00;5087464;28;20446;-71
2023/03/14 09:00:12;;;;;;;7.13;1.67;;;12.00;80.00;;;12.12;64.47;96016.38;5084378;28;20516;-72
2023/03/14 09:02:39;;;;;;;2.27;0.97;;;12.10;80.10;;;12.49;63.48;96017.91;5106086;27;20468;-71
2023/03/14 09:05:08;;;;;;;2.07;1.10;;;12.30;79.80;;;12.46;63.75;96007.63;5077010;28;20984;-73
2023/03/14 09:07:36;;;;;;;1.70;0.80;;;12.30;79.60;;;12.92;62.24;96014.72;5084119;28;20811;-76
2023/03/14 09:10:03;;;;;;;1.70;1.10;;;12.60;79.00;;;12.84;61.45;96020.72;5074033;28;20457;-72
2023/03/14 09:12:31;;;;;;;1.23;1.03;;;12.80;78.30;;;12.71;62.56;96014.81;5082874;28;20926;-71
2023/03/14 09:14:58;;;;;;;2.27;0.80;;;12.70;78.50;;;12.69;62.05;96008.88;5089888;28;20461;-72
2023/03/14 09:17:27;;;;;;;1.47;0.80;;;12.70;78.10;;;12.41;62.53;96005.75;5083120;28;20453;-73
2023/03/14 09:19:54;;;;;;;2.30;0.90;;;12.60;77.90;;;12.76;61.54;96000.44;5092594;28;20490;-73
2023/03/14 09:22:22;;;;;;;3.40;1.30;;;12.60;77.80;;;12.75;60.88;95988.78;5099653;28;20514;-74
2023/03/14 09:24:49;;;;;;;1.80;0.80;;;12.70;77.20;;;12.91;60.65;96002.25;5070204;28;20517;-73
2023/03/14 09:27:16;;;;;;;1.87;1.00;;;12.90;77.10;;;13.11;60.13;95997.78;5087797;28;20472;-74
2023/03/14 09:29:44;;;;;;;2.47;0.77;;;13.10;76.80;;;13.77;58.63;95995.69;5097018;27;20540;-74
2023/03/14 09:32:11;;;;;;;1.83;0.80;;;13.50;76.30;;;13.53;58.99;95996.44;5094210;27;20458;-72
2023/03/14 09:34:40;;;;;;;3.17;0.80;;;13.60;75.40;;;13.98;57.70;96001.72;5110571;27;20451;-71
2023/03/14 09:37:07;;;;;;;2.67;1.00;;;13.80;75.00;;;14.12;57.24;96001.06;5086094;28;20450;-71
2023/03/14 09:39:34;;;;;;;2.40;1.07;;;14.00;74.50;;;14.13;57.35;96008.91;5081154;28;20493;-70
2023/03/14 09:42:07;;;;;;;3.20;1.40;;;14.10;74.40;;;14.27;56.39;95997.34;5080852;28;21004;-72
2023/03/14 09:44:40;;;;;;;3.57;1.30;;;14.20;73.80;;;14.01;56.07;96006.59;5077518;28;20458;-71
2023/03/14 09:47:11;;;;;;;2.63;1.40;;;14.10;73.00;;;13.23;57.75;95963.00;5094941;27;20526;-69
2023/03/14 09:49:41;;;;;;;2.80;1.23;;;13.70;73.30;;;13.43;58.16;96001.91;5089723;28;20463;-73
2023/03/14 09:52:15;;;;;;;2.33;1.43;;;13.50;74.00;;;13.71;58.05;96003.06;5080665;28;20517;-72
2023/03/14 09:54:47;;;;;;;4.43;1.30;;;13.50;74.40;;;13.14;59.12;96006.16;5080250;28;20458;-72
2023/03/14 09:57:18;;;;;;;2.47;0.90;;;13.20;74.50;;;12.93;59.89;96005.47;5086467;28;20801;-73
2023/03/14 09:59:48;;;;;;;4.20;1.20;;;13.00;74.90;;;12.19;59.81;95895.09;5091386;28;20447;-72
2023/03/14 10:02:20;;;;;;;9.77;2.10;;;12.90;74.90;;;12.96;58.54;95993.28;5075891;27;20482;-70
2023/03/14 10:04:51;;;;;;;1.90;0.70;;;13.00;74.30;;;12.65;59.84;95999.66;5080357;28;20457;-72
2023/03/14 10:07:28;;;;;;;1.50;0.70;;;12.90;74.10;;;12.83;59.30;96006.34;5083825;28;20523;-71
2023/03/14 10:09:55;;;;;;;1.87;1.23;;;12.90;74.30;;;12.70;60.19;95988.81;5081284;28;20455;-71
2023/03/14 10:12:32;;;;;;;2.83;0.70;;;12.80;74.80;;;13.08;58.91;95996.47;5084983;28;20465;-69
2023/03/14 10:15:06;;;;;;;2.57;0.80;;;12.90;74.60;;;12.75;59.96;95983.38;5085873;27;20871;-71
2023/03/14 10:17:41;;;;;;;1.43;0.83;;;12.90;74.60;;;13.00;59.62;95987.03;5083974;28;20482;-71
2023/03/14 10:20:37;;;;;;;1.23;0.77;;;13.00;75.00;;;13.17;59.70;95988.53;5081619;28;20499;-70
2023/03/14 10:23:07;;;;;;;4.67;1.30;;;13.00;75.00;;;13.26;58.31;95970.56;5091907;27;20535;-70
2023/03/14 10:25:38;;;;;;;2.93;1.90;;;13.20;74.40;;;13.30;58.47;95979.78;5077473;28;20455;-73
2023/03/14 10:28:06;;;;;;;0.87;0.73;;;13.20;74.20;;;13.39;58.00;95979.97;5078465;28;21229;-71
2023/03/14 10:30:45;;;;;;;1.27;0.80;;;13.30;74.00;;;13.25;58.27;95979.00;5080348;28;20570;-71
2023/03/14 10:33:21;;;;;;;1.47;0.70;;;13.30;73.80;;;12.66;59.74;95984.22;5102641;27;21072;-70
2023/03/14 10:35:55;;;;;;;1.60;0.90;;;12.80;73.80;;;13.22;58.59;95974.94;5099621;27;20485;-69